Constance, Kentucky
Current Conditions -  °F | °C
As of 6:57 PM on Saturday 22 Nov 2014 (Local Time) from KI69 Reporting Station
Broken Clouds Broken Clouds  
Wind Chill: 55°   Ceiling: 9000
Heat Index: 55°   Visibility: 10mi
Dew Point: 34°   Wind: 3mph
Humidity: 44%   Direction: 180°S
Pressure: 30.09"   Gusts: NA
Location:  39.0738°N, 84.6374°W
Report Text: KI69 222357Z AUTO 18003KT 10SM SCT065 BKN090 13/01 A3009 RMK AO1
Loading
Personal Weather Stations






























Interactive Weather Map New forecast layout! Learn more

10-Day Weather Forecast

Advertisements
Track Severe Weather on mobile